Time;durP1;ratioP1;P1;durP2;ratioP2;P2;SDS_P1;SDS_P2;PMS_P1;PMS_P2;Temp;Humidity;BMP_temperature;BMP_pressure;BME280_temperature;BME280_humidity;BME280_pressure;Samples;Min_cycle;Max_cycle;Signal;HPM_P1;HPM_P2
2022/07/26 00:02:09;;;;;;;21.63;3.05;;;19.10;99.90;;;;;;5036391;28;20645;-81
2022/07/26 00:04:34;;;;;;;13.13;3.20;;;19.10;99.90;;;;;;5034001;28;20042;-81
2022/07/26 00:07:00;;;;;;;14.55;3.05;;;19.20;99.90;;;;;;5021727;28;20127;-81
2022/07/26 00:09:26;;;;;;;19.05;3.42;;;19.20;99.90;;;;;;5022964;28;20064;-80
2022/07/26 00:11:51;;;;;;;16.88;3.97;;;19.20;99.90;;;;;;5015582;28;20081;-81
2022/07/26 00:14:17;;;;;;;20.30;4.13;;;19.10;99.90;;;;;;5030512;28;20101;-82
2022/07/26 00:16:43;;;;;;;17.92;3.55;;;19.20;99.90;;;;;;5011406;28;20042;-83
2022/07/26 00:19:08;;;;;;;13.50;3.33;;;19.20;99.90;;;;;;5019259;28;20046;-81
2022/07/26 00:21:36;;;;;;;16.05;4.63;;;19.20;99.90;;;;;;5023486;28;20041;-81
2022/07/26 00:24:03;;;;;;;19.38;3.22;;;19.20;99.90;;;;;;5037919;28;20300;-81
2022/07/26 00:26:28;;;;;;;17.25;3.60;;;19.10;99.90;;;;;;5036289;28;20045;-81
2022/07/26 00:28:54;;;;;;;14.30;3.00;;;19.20;99.90;;;;;;5020768;28;20072;-82
2022/07/26 00:31:20;;;;;;;18.13;3.65;;;19.20;99.90;;;;;;5025300;28;20042;-81
2022/07/26 00:33:45;;;;;;;14.43;3.30;;;19.20;99.90;;;;;;5016866;28;20033;-82
2022/07/26 00:36:11;;;;;;;15.98;3.08;;;19.20;99.90;;;;;;5021018;28;20037;-80
2022/07/26 00:38:37;;;;;;;16.80;3.28;;;19.20;99.90;;;;;;5021118;28;20045;-81
2022/07/26 00:41:04;;;;;;;15.00;4.35;;;19.20;99.90;;;;;;5038122;28;20064;-80
2022/07/26 00:43:30;;;;;;;15.65;3.03;;;19.20;99.90;;;;;;5026339;28;20143;-83
2022/07/26 00:45:56;;;;;;;13.95;2.78;;;19.20;99.90;;;;;;5020474;28;20037;-81
2022/07/26 00:48:22;;;;;;;11.10;2.80;;;19.10;99.90;;;;;;5021494;28;20297;-81
2022/07/26 00:50:48;;;;;;;17.48;3.20;;;19.10;99.90;;;;;;5019617;28;20488;-80
2022/07/26 00:53:14;;;;;;;18.58;3.03;;;19.10;99.90;;;;;;5039424;28;20037;-82
2022/07/26 00:55:39;;;;;;;22.27;3.58;;;19.10;99.90;;;;;;5035910;28;20052;-82
2022/07/26 00:58:05;;;;;;;15.48;2.63;;;19.10;99.90;;;;;;5035422;28;20048;-81
2022/07/26 01:00:31;;;;;;;15.48;3.15;;;19.00;99.90;;;;;;5026717;28;20042;-81
2022/07/26 01:02:59;;;;;;;10.40;2.75;;;19.00;99.90;;;;;;5040967;28;20052;-80
2022/07/26 01:05:25;;;;;;;12.77;3.00;;;19.00;99.90;;;;;;5019987;28;20049;-82
2022/07/26 01:07:52;;;;;;;16.80;3.40;;;18.90;99.90;;;;;;5038713;28;20044;-81
2022/07/26 01:10:18;;;;;;;17.50;3.20;;;18.90;99.90;;;;;;5021862;28;20057;-80
2022/07/26 01:12:44;;;;;;;10.90;2.70;;;18.90;99.90;;;;;;5021326;28;20045;-82
2022/07/26 01:15:11;;;;;;;15.57;3.67;;;18.90;99.90;;;;;;5020881;28;20064;-80
2022/07/26 01:17:37;;;;;;;15.50;3.25;;;18.90;99.90;;;;;;5030394;28;20582;-80
2022/07/26 01:20:04;;;;;;;12.45;2.30;;;18.80;99.90;;;;;;5036064;28;20045;-81
2022/07/26 01:22:30;;;;;;;12.80;3.42;;;18.80;99.90;;;;;;5031238;28;20480;-81
2022/07/26 01:24:55;;;;;;;8.95;2.15;;;18.70;99.90;;;;;;5035698;28;20049;-82
2022/07/26 01:27:21;;;;;;;15.95;3.00;;;18.70;99.90;;;;;;5019402;28;20037;-82
2022/07/26 01:29:47;;;;;;;9.60;1.83;;;18.70;99.90;;;;;;5017402;28;20072;-81
2022/07/26 01:32:13;;;;;;;11.15;2.75;;;18.70;99.90;;;;;;5006793;28;20041;-81
2022/07/26 01:34:39;;;;;;;9.27;1.73;;;18.60;99.90;;;;;;5024246;28;20041;-81
2022/07/26 01:37:04;;;;;;;8.60;1.92;;;18.60;99.90;;;;;;5038739;28;20107;-81
2022/07/26 01:39:30;;;;;;;11.18;2.17;;;18.50;99.90;;;;;;5031055;28;20056;-82
2022/07/26 01:41:56;;;;;;;7.47;1.70;;;18.50;99.90;;;;;;5015861;28;20029;-80
2022/07/26 01:44:22;;;;;;;13.60;2.17;;;18.40;99.90;;;;;;5020965;28;20033;-81
2022/07/26 01:46:48;;;;;;;8.18;1.70;;;18.30;99.90;;;;;;5038268;28;20040;-81
2022/07/26 01:49:14;;;;;;;5.38;1.25;;;18.30;99.90;;;;;;5036773;28;20456;-80
2022/07/26 01:51:39;;;;;;;5.55;1.25;;;18.30;99.90;;;;;;5016109;28;20053;-81
2022/07/26 01:54:05;;;;;;;7.13;1.48;;;18.30;99.90;;;;;;5016287;28;20046;-81
2022/07/26 01:56:30;;;;;;;6.55;1.25;;;18.30;99.90;;;;;;5024932;28;20037;-82
2022/07/26 01:58:56;;;;;;;6.95;1.00;;;18.40;99.90;;;;;;5004899;28;20042;-82
2022/07/26 02:01:21;;;;;;;7.07;1.88;;;18.30;99.90;;;;;;5017976;28;20038;-80
2022/07/26 02:04:02;;;;;;;4.70;1.40;;;18.30;99.90;;;;;;5034841;28;20093;-81
2022/07/26 02:06:27;;;;;;;5.20;1.80;;;18.30;99.90;;;;;;5014005;28;20101;-82
2022/07/26 02:08:53;;;;;;;11.02;1.55;;;18.30;99.90;;;;;;5015297;28;20042;-81
2022/07/26 02:11:19;;;;;;;5.47;1.30;;;18.30;99.90;;;;;;5017246;28;20087;-80
2022/07/26 02:13:44;;;;;;;4.22;1.10;;;18.40;99.90;;;;;;5023203;28;20060;-80
2022/07/26 02:16:12;;;;;;;5.93;1.10;;;18.40;99.90;;;;;;5014250;28;20037;-80
2022/07/26 02:18:39;;;;;;;4.95;1.10;;;18.40;99.90;;;;;;5019334;28;20030;-80
2022/07/26 02:21:05;;;;;;;3.65;1.38;;;18.40;99.90;;;;;;5016079;28;20041;-82
2022/07/26 02:23:32;;;;;;;5.45;1.40;;;18.40;99.90;;;;;;5018448;28;20125;-79
2022/07/26 02:25:59;;;;;;;5.90;1.25;;;18.40;99.90;;;;;;5029131;28;20061;-81
2022/07/26 02:28:25;;;;;;;6.38;1.73;;;18.40;99.90;;;;;;5018509;28;20044;-80
2022/07/26 02:30:51;;;;;;;6.93;1.20;;;18.50;99.90;;;;;;5022379;28;20050;-83
2022/07/26 02:33:17;;;;;;;8.18;1.73;;;18.40;99.90;;;;;;5018367;28;20053;-82
2022/07/26 02:35:45;;;;;;;5.30;1.08;;;18.40;99.90;;;;;;5019025;28;20128;-80
2022/07/26 02:38:13;;;;;;;4.53;1.50;;;18.30;99.90;;;;;;5014272;28;20041;-80
2022/07/26 02:40:39;;;;;;;5.05;1.50;;;18.40;99.90;;;;;;5018418;28;20050;-80
2022/07/26 02:43:07;;;;;;;6.97;1.45;;;18.30;99.90;;;;;;5033922;28;20033;-80
2022/07/26 02:45:33;;;;;;;6.82;1.40;;;18.30;99.90;;;;;;5031674;28;20068;-81
2022/07/26 02:47:59;;;;;;;7.97;1.33;;;18.20;99.90;;;;;;5022758;28;20052;-80
2022/07/26 02:50:26;;;;;;;5.22;1.48;;;18.30;99.90;;;;;;5008772;28;20326;-81
2022/07/26 02:52:53;;;;;;;3.63;1.00;;;18.30;99.90;;;;;;5036202;28;20043;-81
2022/07/26 02:55:20;;;;;;;6.28;1.63;;;18.30;99.90;;;;;;5015996;28;20457;-81
2022/07/26 02:57:47;;;;;;;5.13;1.13;;;18.30;99.90;;;;;;5000831;28;20037;-80
2022/07/26 03:00:15;;;;;;;4.20;1.05;;;18.20;99.90;;;;;;5028189;28;20073;-81
2022/07/26 03:02:40;;;;;;;6.38;1.70;;;18.30;99.90;;;;;;5024944;28;20038;-80
2022/07/26 03:05:06;;;;;;;6.30;1.10;;;18.30;99.90;;;;;;5016144;28;20060;-80
2022/07/26 03:07:32;;;;;;;7.07;1.42;;;18.20;99.90;;;;;;5003792;28;20242;-80
2022/07/26 03:09:58;;;;;;;7.25;1.27;;;18.20;99.90;;;;;;5022666;28;20068;-80
2022/07/26 03:12:24;;;;;;;4.45;2.35;;;18.20;99.90;;;;;;5018190;28;20049;-82
2022/07/26 03:14:50;;;;;;;4.72;1.60;;;18.20;99.90;;;;;;5014369;28;20045;-81
2022/07/26 03:17:16;;;;;;;4.88;1.40;;;18.30;99.90;;;;;;4994617;28;20177;-81
2022/07/26 03:19:42;;;;;;;3.97;1.23;;;18.30;99.90;;;;;;5010603;28;20155;-82
2022/07/26 03:22:08;;;;;;;6.68;1.27;;;18.20;99.90;;;;;;5013740;28;20060;-80
2022/07/26 03:24:33;;;;;;;5.63;1.05;;;18.20;99.90;;;;;;5031731;28;20045;-80
2022/07/26 03:26:59;;;;;;;3.95;1.15;;;18.20;99.90;;;;;;5027573;28;20042;-81
2022/07/26 03:29:24;;;;;;;3.17;1.00;;;18.20;99.90;;;;;;5008078;28;20036;-81
2022/07/26 03:31:50;;;;;;;3.80;0.77;;;18.20;99.90;;;;;;5015510;28;20041;-81
2022/07/26 03:34:16;;;;;;;3.17;1.05;;;18.20;99.90;;;;;;5040293;28;20081;-81
2022/07/26 03:36:45;;;;;;;3.97;1.30;;;18.20;99.90;;;;;;5021791;28;20072;-82
2022/07/26 03:39:10;;;;;;;6.07;1.20;;;18.10;99.90;;;;;;5015339;28;20914;-80
2022/07/26 03:41:36;;;;;;;4.70;1.40;;;18.10;99.90;;;;;;5034059;28;20045;-81
2022/07/26 03:44:02;;;;;;;7.32;1.30;;;18.10;99.90;;;;;;5034200;28;20060;-81
2022/07/26 03:46:27;;;;;;;7.18;1.30;;;18.00;99.90;;;;;;5018451;28;20128;-81
2022/07/26 03:48:53;;;;;;;7.10;1.23;;;17.90;99.90;;;;;;5018787;28;20056;-82
2022/07/26 03:51:19;;;;;;;4.78;1.17;;;18.00;99.90;;;;;;5033080;28;20084;-80
2022/07/26 03:53:44;;;;;;;4.40;0.90;;;17.90;99.90;;;;;;5022834;28;20050;-82
2022/07/26 03:56:30;;;;;;;6.63;1.40;;;17.90;99.90;;;;;;5023026;28;20069;-80
2022/07/26 03:58:57;;;;;;;5.82;1.15;;;18.00;99.90;;;;;;5023074;28;20427;-83
2022/07/26 04:01:23;;;;;;;6.15;1.38;;;17.90;99.90;;;;;;4999703;28;20042;-82
2022/07/26 04:03:51;;;;;;;5.07;1.40;;;17.80;99.90;;;;;;5001797;28;20045;-82
2022/07/26 04:06:17;;;;;;;5.65;1.25;;;17.90;99.90;;;;;;5035157;28;20955;-82
2022/07/26 04:08:45;;;;;;;8.45;1.58;;;17.80;99.90;;;;;;5032417;28;20109;-81
2022/07/26 04:11:11;;;;;;;4.95;1.35;;;17.80;99.90;;;;;;5035569;28;20037;-81
2022/07/26 04:13:37;;;;;;;5.85;1.20;;;17.80;99.90;;;;;;5022288;28;20049;-81
2022/07/26 04:16:03;;;;;;;7.35;1.30;;;17.90;99.90;;;;;;5001954;28;20069;-82
2022/07/26 04:18:29;;;;;;;8.40;1.85;;;18.00;99.90;;;;;;5036098;28;20049;-81
2022/07/26 04:20:54;;;;;;;7.10;0.98;;;18.10;99.90;;;;;;5020825;28;20045;-82
2022/07/26 04:23:20;;;;;;;6.53;1.48;;;18.20;99.90;;;;;;5032424;28;20056;-83
2022/07/26 04:25:46;;;;;;;6.78;1.35;;;18.40;99.90;;;;;;5023040;28;20052;-81
2022/07/26 04:28:11;;;;;;;7.85;1.35;;;18.60;99.90;;;;;;5018449;28;20044;-82
2022/07/26 04:30:39;;;;;;;4.38;1.23;;;18.60;99.90;;;;;;5022878;28;20069;-82
2022/07/26 04:33:05;;;;;;;9.98;1.50;;;18.50;99.90;;;;;;5006992;28;20061;-80
2022/07/26 04:35:31;;;;;;;5.22;1.05;;;18.40;99.90;;;;;;5016956;28;20049;-80
2022/07/26 04:37:56;;;;;;;8.93;1.45;;;18.30;99.90;;;;;;5032723;28;20420;-80
2022/07/26 04:40:26;;;;;;;5.53;1.08;;;18.30;99.90;;;;;;5016090;28;20358;-80
2022/07/26 04:42:52;;;;;;;11.00;1.20;;;18.20;99.90;;;;;;5023795;28;20136;-82
2022/07/26 04:45:26;;;;;;;6.15;0.73;;;18.10;99.90;;;;;;5016228;28;20050;-82
2022/07/26 04:47:51;;;;;;;7.85;1.60;;;18.10;99.90;;;;;;5033780;28;20052;-82
2022/07/26 04:50:18;;;;;;;3.35;0.70;;;18.10;99.90;;;;;;5034206;28;20041;-83
2022/07/26 04:52:44;;;;;;;6.10;0.90;;;18.10;99.90;;;;;;5029932;28;20041;-83
2022/07/26 04:55:10;;;;;;;6.03;0.85;;;18.10;99.90;;;;;;5021262;28;20041;-83
2022/07/26 04:57:36;;;;;;;3.92;0.70;;;18.10;99.90;;;;;;5021646;28;20045;-83
2022/07/26 05:00:05;;;;;;;5.15;0.77;;;18.20;99.90;;;;;;5015453;28;20116;-81
2022/07/26 05:02:30;;;;;;;7.28;1.08;;;18.10;99.90;;;;;;5018376;28;20049;-83
2022/07/26 05:04:56;;;;;;;3.55;0.70;;;18.10;99.90;;;;;;5035353;28;20418;-81
2022/07/26 05:07:21;;;;;;;6.97;1.00;;;18.10;99.90;;;;;;5015973;28;20617;-82
2022/07/26 05:09:47;;;;;;;9.43;1.58;;;18.20;99.90;;;;;;5019127;28;20045;-81
2022/07/26 05:12:27;;;;;;;6.65;0.73;;;18.20;99.90;;;;;;5018789;28;20053;-82
2022/07/26 05:15:25;;;;;;;4.30;0.52;;;18.20;99.90;;;;;;5031265;28;20038;-82
2022/07/26 05:21:09;;;;;;;;;;;;;;;;;;;;;
2022/07/26 05:24:00;;;;;;;4.85;0.60;;;18.10;99.90;;;;;;5072824;28;19952;-81
2022/07/26 05:26:32;;;;;;;3.30;0.50;;;18.00;99.90;;;;;;5032010;28;20592;-81
2022/07/26 05:29:32;;;;;;;;;;;;;;;;;;;;;
2022/07/26 05:31:58;;;;;;;4.35;0.43;;;17.90;99.90;;;;;;5051507;28;20037;-81
2022/07/26 05:34:35;;;;;;;8.02;0.70;;;18.10;99.90;;;;;;5054313;28;20364;-81
2022/07/26 05:37:42;;;;;;;5.10;0.60;;;17.80;99.90;;;;;;5051742;28;20053;-83
2022/07/26 05:40:13;;;;;;;2.38;0.60;;;17.80;99.90;;;;;;5052369;28;20056;-81
2022/07/26 05:42:39;;;;;;;6.28;0.60;;;17.80;99.90;;;;;;5050925;28;20049;-80
2022/07/26 05:45:05;;;;;;;5.93;0.32;;;17.80;99.90;;;;;;5052173;28;20036;-81
2022/07/26 05:47:32;;;;;;;7.38;0.60;;;17.80;99.90;;;;;;5048826;28;20101;-80
2022/07/26 05:49:58;;;;;;;7.53;0.68;;;18.10;99.90;;;;;;5049613;28;20043;-81
2022/07/26 05:52:23;;;;;;;6.85;0.57;;;17.80;99.90;;;;;;5050266;28;20037;-80
2022/07/26 05:54:49;;;;;;;6.32;0.70;;;17.80;99.90;;;;;;5046817;28;20044;-80
2022/07/26 05:57:14;;;;;;;8.35;0.80;;;17.80;99.90;;;;;;5049805;28;20136;-82
2022/07/26 05:59:40;;;;;;;6.30;1.20;;;17.90;99.90;;;;;;5045230;28;20388;-79
2022/07/26 06:02:07;;;;;;;3.65;0.30;;;17.90;99.90;;;;;;5043241;28;20056;-80
2022/07/26 06:04:33;;;;;;;6.03;0.65;;;17.90;99.90;;;;;;5042167;28;20045;-80
2022/07/26 06:06:59;;;;;;;2.40;0.55;;;17.90;99.90;;;;;;5040558;28;20468;-79
2022/07/26 06:09:25;;;;;;;5.32;0.57;;;17.90;99.90;;;;;;5037683;28;20039;-79
2022/07/26 06:11:52;;;;;;;8.07;0.70;;;17.80;99.90;;;;;;5040118;28;20044;-79
2022/07/26 06:14:18;;;;;;;5.43;0.75;;;17.80;99.90;;;;;;5043122;28;20045;-80
2022/07/26 06:16:45;;;;;;;7.25;0.60;;;17.80;99.90;;;;;;5043708;28;20038;-79
2022/07/26 06:19:21;;;;;;;5.45;1.33;;;17.80;99.90;;;;;;5044548;28;20037;-82
2022/07/26 06:22:15;;;;;;;4.82;0.28;;;17.90;99.90;;;;;;5054215;28;20045;-82
2022/07/26 06:25:15;;;;;;;4.30;0.45;;;17.90;99.90;;;;;;4998292;28;20065;-84
2022/07/26 06:28:02;;;;;;;4.53;0.68;;;18.40;99.90;;;;;;4995620;28;20465;-81
2022/07/26 06:31:03;;;;;;;5.35;0.50;;;18.10;99.90;;;;;;4977012;28;20834;-82
2022/07/26 06:33:38;;;;;;;3.22;0.88;;;18.10;99.90;;;;;;4991210;28;20038;-82
2022/07/26 06:36:12;;;;;;;2.78;0.32;;;18.10;99.90;;;;;;4981053;28;20038;-82
2022/07/26 06:38:54;;;;;;;6.72;0.82;;;18.10;99.90;;;;;;4978830;28;20045;-81
2022/07/26 06:41:23;;;;;;;5.15;1.13;;;18.20;99.90;;;;;;4989960;28;20052;-83
2022/07/26 06:43:53;;;;;;;4.22;1.08;;;18.30;99.90;;;;;;5049122;28;20106;-83
2022/07/26 06:46:21;;;;;;;2.55;0.30;;;18.20;99.90;;;;;;5065426;28;20129;-81
2022/07/26 06:48:47;;;;;;;6.32;0.47;;;18.30;99.90;;;;;;5051801;28;20045;-81
2022/07/26 06:51:13;;;;;;;5.03;0.70;;;18.30;99.90;;;;;;5047652;28;20064;-80
2022/07/26 06:53:39;;;;;;;5.13;0.88;;;18.40;99.90;;;;;;5047078;28;20491;-81
2022/07/26 06:56:05;;;;;;;5.95;0.60;;;18.50;99.90;;;;;;5056021;28;20037;-82
2022/07/26 06:58:31;;;;;;;6.32;0.50;;;18.60;99.90;;;;;;5053065;28;20037;-83
2022/07/26 07:00:56;;;;;;;5.60;0.80;;;18.70;99.90;;;;;;5056782;28;20068;-82
2022/07/26 07:03:22;;;;;;;6.07;0.60;;;18.90;99.90;;;;;;5034708;28;20116;-82
2022/07/26 07:05:48;;;;;;;3.80;0.60;;;18.90;99.90;;;;;;5054274;28;20178;-82
2022/07/26 07:08:14;;;;;;;5.95;1.15;;;18.90;99.90;;;;;;5033276;28;20041;-83
2022/07/26 07:10:45;;;;;;;7.90;1.58;;;18.90;99.90;;;;;;5054059;28;20475;-84
2022/07/26 07:13:26;;;;;;;7.10;0.82;;;19.10;99.90;;;;;;5038761;28;20040;-82
2022/07/26 07:19:07;;;;;;;5.20;0.85;;;19.50;99.90;;;;;;5030276;28;20567;-82
2022/07/26 07:21:40;;;;;;;4.95;1.27;;;19.60;99.90;;;;;;5056853;28;20036;-83
2022/07/26 07:24:11;;;;;;;8.38;0.68;;;19.60;99.90;;;;;;5050660;28;20047;-83
2022/07/26 07:26:40;;;;;;;11.15;2.35;;;19.70;99.90;;;;;;5051470;28;20639;-82
2022/07/26 07:29:14;;;;;;;6.85;0.75;;;19.50;99.90;;;;;;5049857;28;20041;-84
2022/07/26 07:34:49;;;;;;;;;;;;;;;;;;;;;
2022/07/26 07:37:24;;;;;;;4.22;0.88;;;19.80;99.90;;;;;;5053525;28;20045;-81
2022/07/26 07:39:49;;;;;;;5.70;0.85;;;19.70;99.90;;;;;;5048355;28;20114;-80
2022/07/26 07:42:15;;;;;;;5.60;0.90;;;19.50;99.90;;;;;;5029921;28;20732;-82
2022/07/26 07:44:42;;;;;;;6.78;0.70;;;19.40;99.90;;;;;;5052454;28;20037;-81
2022/07/26 07:47:07;;;;;;;5.25;0.60;;;19.30;99.90;;;;;;5038223;28;20403;-82
2022/07/26 07:49:34;;;;;;;3.33;0.70;;;19.30;99.90;;;;;;5031305;28;20041;-81
2022/07/26 07:52:00;;;;;;;3.65;0.50;;;19.40;99.90;;;;;;5050330;28;21916;-81
2022/07/26 07:54:25;;;;;;;3.95;0.40;;;19.50;99.90;;;;;;5049360;28;20075;-84
2022/07/26 07:56:51;;;;;;;5.63;0.40;;;19.50;99.90;;;;;;5046671;28;20479;-81
2022/07/26 07:59:17;;;;;;;6.88;0.70;;;19.70;99.90;;;;;;5032525;28;20055;-82
2022/07/26 08:01:43;;;;;;;7.15;0.95;;;19.70;99.90;;;;;;5033776;28;20052;-84
2022/07/26 08:04:08;;;;;;;5.18;0.73;;;19.90;99.90;;;;;;5050356;28;20120;-82
2022/07/26 08:06:34;;;;;;;6.72;0.98;;;20.00;99.90;;;;;;5045982;28;20044;-82
2022/07/26 08:09:00;;;;;;;5.07;0.47;;;20.20;99.90;;;;;;5048100;28;20435;-81
2022/07/26 08:11:26;;;;;;;11.18;1.23;;;20.50;99.90;;;;;;5044960;28;20051;-81
2022/07/26 08:13:52;;;;;;;3.58;0.40;;;20.60;99.90;;;;;;5049302;28;20076;-80
2022/07/26 08:16:17;;;;;;;4.13;0.88;;;20.60;99.90;;;;;;5035740;28;20037;-81
2022/07/26 08:18:43;;;;;;;3.67;0.65;;;20.70;99.90;;;;;;5043600;28;21532;-82
2022/07/26 08:21:08;;;;;;;6.15;0.70;;;20.80;99.90;;;;;;5031586;28;20051;-82
2022/07/26 08:23:34;;;;;;;5.10;1.15;;;20.90;99.90;;;;;;5050111;28;20040;-83
2022/07/26 08:26:00;;;;;;;7.53;0.77;;;21.00;99.90;;;;;;5054089;28;20051;-82
2022/07/26 08:28:27;;;;;;;6.13;0.77;;;21.10;99.90;;;;;;5048417;28;20080;-81
2022/07/26 08:30:52;;;;;;;6.45;1.00;;;21.40;99.90;;;;;;5046133;28;20114;-81
2022/07/26 08:33:19;;;;;;;8.05;0.80;;;21.70;99.90;;;;;;5049323;28;20083;-82
2022/07/26 08:35:44;;;;;;;4.65;0.77;;;21.90;99.90;;;;;;5030645;28;20044;-83
2022/07/26 08:38:10;;;;;;;4.60;0.68;;;22.00;99.90;;;;;;5027807;28;20060;-82
2022/07/26 08:40:36;;;;;;;5.78;0.63;;;22.00;99.90;;;;;;5047239;28;20111;-81
2022/07/26 08:43:02;;;;;;;8.10;1.00;;;21.80;99.90;;;;;;5065094;28;20052;-81
2022/07/26 08:45:30;;;;;;;5.55;0.68;;;21.60;99.90;;;;;;5049415;28;20037;-83
2022/07/26 08:47:57;;;;;;;5.30;0.80;;;21.30;99.90;;;;;;5055117;28;20132;-82
2022/07/26 08:50:24;;;;;;;3.67;0.52;;;21.10;99.90;;;;;;5037657;28;20059;-81
2022/07/26 08:52:50;;;;;;;4.85;0.60;;;20.90;99.90;;;;;;5052742;28;20049;-83
2022/07/26 08:55:18;;;;;;;3.42;0.73;;;20.80;99.90;;;;;;5055867;28;20041;-82
2022/07/26 08:57:44;;;;;;;9.80;1.20;;;20.70;99.90;;;;;;5056497;28;20044;-82
2022/07/26 09:00:23;;;;;;;4.43;0.65;;;20.80;99.90;;;;;;5059122;28;20045;-84
2022/07/26 09:02:49;;;;;;;3.33;0.63;;;21.10;99.90;;;;;;5056329;28;20197;-82
2022/07/26 09:05:18;;;;;;;5.30;0.80;;;21.60;99.90;;;;;;5052309;28;20524;-83
2022/07/26 09:07:50;;;;;;;8.15;1.05;;;22.40;99.90;;;;;;5052214;28;20091;-83
2022/07/26 09:10:15;;;;;;;5.22;1.05;;;22.50;99.90;;;;;;5036604;28;20040;-81
2022/07/26 09:12:42;;;;;;;6.03;1.27;;;23.00;99.90;;;;;;5035962;28;20044;-83
2022/07/26 09:15:19;;;;;;;6.13;0.80;;;23.30;99.90;;;;;;5052363;28;20064;-84
2022/07/26 09:17:49;;;;;;;3.00;0.70;;;23.80;99.90;;;;;;5038416;28;20079;-82
2022/07/26 09:20:26;;;;;;;6.30;1.10;;;23.60;99.90;;;;;;5049744;28;20040;-85
2022/07/26 09:23:10;;;;;;;12.35;1.30;;;23.60;99.90;;;;;;5053060;28;20545;-84
2022/07/26 09:25:38;;;;;;;4.20;0.82;;;23.10;99.90;;;;;;5050407;28;20480;-83
2022/07/26 09:28:28;;;;;;;4.60;0.70;;;22.80;99.90;;;;;;5050181;28;20052;-80
2022/07/26 09:31:02;;;;;;;8.82;0.70;;;22.60;99.90;;;;;;5050077;28;20112;-78
2022/07/26 09:33:45;;;;;;;14.53;1.00;;;22.40;99.90;;;;;;5053260;28;20049;-79
2022/07/26 09:36:11;;;;;;;8.10;0.65;;;22.50;99.90;;;;;;5048447;28;20056;-79
2022/07/26 09:38:45;;;;;;;7.95;0.50;;;22.70;99.90;;;;;;5056386;28;20465;-81
2022/07/26 09:41:22;;;;;;;6.60;0.73;;;23.00;99.90;;;;;;5036075;28;20049;-81
2022/07/26 09:43:49;;;;;;;10.38;1.27;;;23.20;99.90;;;;;;5057454;28;20487;-80
2022/07/26 09:46:14;;;;;;;9.45;1.02;;;23.10;99.90;;;;;;5061782;28;20051;-80
2022/07/26 09:48:41;;;;;;;3.65;0.55;;;22.90;99.90;;;;;;5050817;28;20052;-80
2022/07/26 09:51:08;;;;;;;6.50;1.13;;;22.90;99.90;;;;;;5056384;28;20048;-82
2022/07/26 09:53:44;;;;;;;5.40;1.02;;;22.70;99.90;;;;;;5048269;28;20067;-81
2022/07/26 09:56:13;;;;;;;9.43;1.42;;;22.60;99.90;;;;;;5045866;28;20044;-81
2022/07/26 09:58:40;;;;;;;6.25;1.40;;;22.40;99.90;;;;;;5050880;28;20052;-82
2022/07/26 10:01:06;;;;;;;7.38;1.08;;;22.40;99.90;;;;;;5054722;28;20104;-81
2022/07/26 10:03:34;;;;;;;5.60;0.90;;;22.40;99.90;;;;;;5039439;28;20037;-83
2022/07/26 10:06:01;;;;;;;7.78;1.35;;;22.40;99.90;;;;;;5054855;28;20037;-81
2022/07/26 10:08:27;;;;;;;7.95;1.48;;;22.60;99.90;;;;;;5051419;28;20041;-82
2022/07/26 10:11:00;;;;;;;12.55;1.85;;;22.70;99.90;;;;;;5052252;28;20044;-80
2022/07/26 10:13:27;;;;;;;6.30;1.20;;;22.90;99.90;;;;;;5055271;28;20087;-81
2022/07/26 10:15:55;;;;;;;8.25;1.85;;;23.00;99.90;;;;;;5051427;28;20608;-81
2022/07/26 10:18:36;;;;;;;10.35;1.83;;;23.00;99.90;;;;;;5048727;28;20088;-82
2022/07/26 10:21:23;;;;;;;8.82;1.98;;;22.80;99.90;;;;;;5045388;28;20136;-82
2022/07/26 10:23:57;;;;;;;8.68;1.83;;;22.60;99.90;;;;;;5064357;28;20057;-81
2022/07/26 10:26:31;;;;;;;7.70;2.10;;;22.20;99.90;;;;;;5049811;28;20040;-81
2022/07/26 10:29:35;;;;;;;10.38;1.50;;;22.00;99.90;;;;;;5047756;28;20091;-82
2022/07/26 10:32:07;;;;;;;11.00;1.40;;;21.80;99.90;;;;;;5051894;28;20037;-82
2022/07/26 10:34:50;;;;;;;4.30;0.95;;;21.80;99.90;;;;;;5049383;28;20463;-84
2022/07/26 10:37:34;;;;;;;7.40;1.75;;;21.80;99.90;;;;;;5051326;28;20108;-83
2022/07/26 10:41:17;;;;;;;5.65;1.48;;;21.80;99.90;;;;;;5053642;28;20120;-83
2022/07/26 10:44:03;;;;;;;;;;;21.70;99.90;;;;;;5011581;28;20163;-82
2022/07/26 10:46:29;;;;;;;10.38;1.45;;;21.50;99.90;;;;;;5058408;28;19975;-80
2022/07/26 10:50:09;;;;;;;7.32;1.10;;;21.60;99.90;;;;;;5055746;28;20068;-84
2022/07/26 10:56:49;;;;;;;;;;;;;;;;;;;;;
2022/07/26 10:59:55;;;;;;;5.70;1.08;;;22.20;99.90;;;;;;4989022;28;20140;-83
2022/07/26 11:03:30;;;;;;;;;;;;;;;;;;;;;
2022/07/26 11:09:24;;;;;;;;;;;;;;;;;;;;;
2022/07/26 11:12:15;;;;;;;10.63;1.45;;;22.00;99.90;;;;;;5061395;28;20045;-83
2022/07/26 11:15:13;;;;;;;6.00;1.15;;;22.10;99.90;;;;;;5018898;28;20049;-83
2022/07/26 11:18:52;;;;;;;6.40;0.98;;;22.20;99.90;;;;;;5036115;28;20675;-84
2022/07/26 11:22:19;;;;;;;;;;;;;;;;;;;;;
2022/07/26 11:24:54;;;;;;;6.80;1.10;;;22.20;99.90;;;;;;5032237;28;20049;-83
2022/07/26 11:27:47;;;;;;;;;;;;;;;;;;;;;
2022/07/26 11:38:18;;;;;;;6.85;1.33;;;22.20;99.90;;;;;;5033231;28;20052;-84
2022/07/26 11:40:50;;;;;;;9.32;2.85;;;22.10;99.90;;;;;;5044866;28;20041;-81
2022/07/26 11:43:21;;;;;;;7.72;1.27;;;21.80;99.90;;;;;;5052023;28;20040;-81
2022/07/26 11:46:05;;;;;;;6.93;1.67;;;22.50;99.90;;;;;;5048035;28;20045;-83
2022/07/26 11:51:28;;;;;;;11.73;0.98;;;22.10;99.90;;;;;;5048735;28;20079;-82
2022/07/26 11:53:58;;;;;;;8.07;1.77;;;21.90;99.90;;;;;;5046973;28;20047;-81
2022/07/26 11:56:29;;;;;;;3.63;0.93;;;22.20;99.90;;;;;;5047551;28;20103;-82
2022/07/26 11:58:58;;;;;;;7.10;1.10;;;22.10;99.90;;;;;;5066007;28;20504;-81
2022/07/26 12:01:25;;;;;;;19.30;1.73;;;22.10;99.90;;;;;;5051897;28;20116;-81
2022/07/26 12:03:53;;;;;;;6.82;1.00;;;22.20;99.90;;;;;;5047432;28;20041;-82
2022/07/26 12:06:21;;;;;;;7.25;1.10;;;22.20;99.90;;;;;;5044325;28;20045;-82
2022/07/26 12:08:56;;;;;;;4.63;0.88;;;22.20;99.90;;;;;;5062474;28;20052;-83
2022/07/26 12:11:24;;;;;;;5.60;0.93;;;22.20;99.90;;;;;;5052480;28;20095;-81
2022/07/26 12:14:01;;;;;;;6.05;0.98;;;22.10;99.90;;;;;;5048251;28;20051;-84
2022/07/26 12:16:44;;;;;;;4.80;1.13;;;22.20;99.90;;;;;;5050681;28;20045;-81
2022/07/26 12:19:16;;;;;;;5.15;0.77;;;22.10;99.90;;;;;;5051282;28;20041;-83
2022/07/26 12:21:47;;;;;;;8.68;1.27;;;22.10;99.90;;;;;;5058699;28;20047;-80
2022/07/26 12:24:37;;;;;;;6.70;0.95;;;22.10;99.90;;;;;;5053632;28;20040;-81
2022/07/26 12:27:04;;;;;;;7.70;1.10;;;22.10;99.90;;;;;;5068370;28;20104;-81
2022/07/26 12:29:34;;;;;;;5.90;1.00;;;22.00;99.90;;;;;;5051555;28;20042;-81
2022/07/26 12:32:30;;;;;;;9.20;0.80;;;22.00;99.90;;;;;;5052630;28;20048;-80
2022/07/26 12:35:08;;;;;;;5.35;1.42;;;21.90;99.90;;;;;;5053971;28;20052;-82
2022/07/26 12:37:57;;;;;;;7.75;1.00;;;21.80;99.90;;;;;;5055006;28;20040;-81
2022/07/26 12:40:28;;;;;;;6.03;1.05;;;21.90;99.90;;;;;;5055140;28;20053;-82
2022/07/26 12:43:00;;;;;;;5.13;0.70;;;21.80;99.90;;;;;;5068565;28;20047;-82
2022/07/26 12:45:28;;;;;;;2.92;0.80;;;21.90;99.90;;;;;;5050397;28;20241;-80
2022/07/26 12:47:56;;;;;;;7.72;1.20;;;21.90;99.90;;;;;;5054687;28;20056;-80
2022/07/26 12:50:24;;;;;;;7.97;0.85;;;21.90;99.90;;;;;;5052599;28;20411;-81
2022/07/26 12:52:50;;;;;;;4.55;0.77;;;21.90;99.90;;;;;;5055805;28;20041;-80
2022/07/26 12:55:19;;;;;;;3.75;0.65;;;22.00;99.90;;;;;;5046906;28;20029;-81
2022/07/26 12:57:46;;;;;;;5.88;0.90;;;22.00;99.90;;;;;;5052981;28;20068;-82
2022/07/26 13:00:14;;;;;;;3.35;0.90;;;22.30;99.90;;;;;;5052345;28;20049;-82
2022/07/26 13:02:41;;;;;;;5.53;0.80;;;22.20;99.90;;;;;;5057432;28;20053;-81
2022/07/26 13:05:08;;;;;;;6.47;0.80;;;22.40;99.90;;;;;;5054312;28;20076;-81
2022/07/26 13:07:34;;;;;;;6.35;0.60;;;22.50;99.90;;;;;;5052826;28;20043;-81
2022/07/26 13:09:59;;;;;;;5.50;1.30;;;22.60;99.90;;;;;;5047301;28;20041;-81
2022/07/26 13:12:25;;;;;;;3.75;0.95;;;22.50;99.90;;;;;;5047646;28;20141;-80
2022/07/26 13:14:51;;;;;;;4.72;0.70;;;22.40;99.90;;;;;;5050655;28;20104;-80
2022/07/26 13:17:17;;;;;;;6.50;0.98;;;22.40;99.90;;;;;;5050667;28;20041;-82
2022/07/26 13:19:42;;;;;;;5.50;0.90;;;22.50;99.90;;;;;;5047951;28;20033;-81
2022/07/26 13:22:08;;;;;;;9.18;1.10;;;22.40;99.90;;;;;;5045807;28;20032;-82
2022/07/26 13:24:36;;;;;;;5.28;1.23;;;22.50;99.90;;;;;;5050004;28;20042;-80
2022/07/26 13:27:02;;;;;;;3.17;0.60;;;22.60;99.90;;;;;;5052418;28;20460;-80
2022/07/26 13:29:27;;;;;;;4.70;0.70;;;22.60;99.90;;;;;;5049985;28;20040;-80
2022/07/26 13:31:54;;;;;;;6.60;0.70;;;22.60;99.90;;;;;;5053309;28;20037;-82
2022/07/26 13:34:22;;;;;;;4.30;0.63;;;22.60;99.90;;;;;;5051099;28;20045;-82
2022/07/26 13:36:48;;;;;;;4.45;0.70;;;22.80;99.90;;;;;;5032239;28;20037;-81
2022/07/26 13:39:14;;;;;;;4.97;0.70;;;22.80;99.90;;;;;;5049240;28;20049;-80
2022/07/26 13:41:40;;;;;;;3.78;0.80;;;23.00;99.90;;;;;;5053296;28;20044;-80